createdAt,value
2024-04-23T00:00:06.632Z,10.14
2024-04-23T00:01:06.654Z,10.14
2024-04-23T00:02:06.630Z,10.18
2024-04-23T00:03:06.630Z,10.23
2024-04-23T00:04:06.628Z,10.26
2024-04-23T00:05:06.662Z,10.20
2024-04-23T00:06:06.593Z,10.29
2024-04-23T00:07:06.583Z,10.36
2024-04-23T00:08:06.710Z,10.41
2024-04-23T00:09:06.567Z,10.41
2024-04-23T00:10:06.567Z,10.42
2024-04-23T00:11:06.714Z,10.42
2024-04-23T00:12:06.567Z,10.32
2024-04-23T00:13:06.551Z,10.30
2024-04-23T00:14:06.544Z,10.30
2024-04-23T00:15:06.542Z,10.30
2024-04-23T00:16:06.538Z,10.30
2024-04-23T00:17:06.608Z,10.38
2024-04-23T00:18:06.697Z,10.40
2024-04-23T00:19:06.548Z,10.27
2024-04-23T00:20:06.567Z,10.32
2024-04-23T00:21:06.513Z,10.29
2024-04-23T00:22:06.507Z,10.23
2024-04-23T00:23:06.497Z,10.15
2024-04-23T00:24:06.511Z,10.09
2024-04-23T00:25:06.495Z,10.05
2024-04-23T00:26:06.491Z,10.08
2024-04-23T00:27:06.483Z,10.11
2024-04-23T00:28:06.479Z,10.05
2024-04-23T00:29:06.466Z,10.08
2024-04-23T00:30:06.509Z,9.96
2024-04-23T00:31:06.466Z,9.99
2024-04-23T00:32:06.579Z,9.89
2024-04-23T00:33:06.530Z,9.86
2024-04-23T00:34:06.443Z,9.84
2024-04-23T00:35:06.529Z,9.84
2024-04-23T00:36:06.434Z,9.86
2024-04-23T00:37:06.444Z,9.96
2024-04-23T00:38:06.419Z,9.94
2024-04-23T00:39:06.418Z,9.99
2024-04-23T00:40:06.448Z,10.01
2024-04-23T00:41:06.495Z,10.02
2024-04-23T00:42:06.414Z,9.87
2024-04-23T00:43:06.398Z,9.91
2024-04-23T00:44:06.396Z,9.93
2024-04-23T00:45:06.377Z,9.89
2024-04-23T00:46:06.382Z,9.99
2024-04-23T00:47:06.400Z,9.99
2024-04-23T00:48:06.417Z,10.11
2024-04-23T00:49:06.363Z,10.09
2024-04-23T00:50:06.427Z,10.08
2024-04-23T00:51:06.366Z,10.15
2024-04-23T00:52:06.366Z,10.18
2024-04-23T00:53:06.349Z,10.09
2024-04-23T00:54:06.352Z,9.99
2024-04-23T00:55:06.326Z,10.04
2024-04-23T00:56:06.375Z,9.96
2024-04-23T00:57:06.321Z,9.91
2024-04-23T00:58:06.330Z,9.93
2024-04-23T00:59:06.400Z,9.89
2024-04-23T01:00:06.315Z,9.86
2024-04-23T01:01:06.358Z,9.86
2024-04-23T01:02:06.392Z,9.89
2024-04-23T01:03:06.414Z,9.91
2024-04-23T01:04:06.281Z,9.93
2024-04-23T01:05:06.336Z,9.91
2024-04-23T01:06:06.275Z,9.79
2024-04-23T01:07:06.265Z,9.79
2024-04-23T01:08:06.290Z,9.76
2024-04-23T01:09:06.295Z,9.71
2024-04-23T01:10:06.272Z,9.64
2024-04-23T01:11:06.358Z,9.57
2024-04-23T01:12:06.266Z,9.47
2024-04-23T01:13:06.237Z,9.48
2024-04-23T01:14:06.360Z,9.47
2024-04-23T01:15:06.222Z,9.50
2024-04-23T01:16:06.227Z,9.40
2024-04-23T01:17:06.426Z,9.38
2024-04-23T01:18:06.314Z,9.36
2024-04-23T01:19:06.196Z,9.38
2024-04-23T01:20:06.279Z,9.39
2024-04-23T01:21:06.189Z,9.39
2024-04-23T01:22:06.209Z,9.46
2024-04-23T01:23:06.275Z,9.53
2024-04-23T01:24:06.177Z,9.50
2024-04-23T01:25:06.170Z,9.51
2024-04-23T01:26:06.246Z,9.39
2024-04-23T01:27:06.191Z,9.39
2024-04-23T01:28:06.159Z,9.42
2024-04-23T01:29:06.156Z,9.39
2024-04-23T01:30:06.142Z,9.43
2024-04-23T01:31:06.145Z,9.40
2024-04-23T01:32:06.135Z,9.46
2024-04-23T01:33:06.141Z,9.54
2024-04-23T01:34:06.129Z,9.47
2024-04-23T01:35:06.108Z,9.51
2024-04-23T01:36:06.118Z,9.57
2024-04-23T01:37:06.112Z,9.69
2024-04-23T01:38:06.179Z,9.66
2024-04-23T01:39:06.086Z,9.54
2024-04-23T01:40:06.074Z,9.60
2024-04-23T01:41:06.093Z,9.65
2024-04-23T01:42:06.078Z,9.58
2024-04-23T01:43:06.070Z,9.60
2024-04-23T01:44:06.069Z,9.53
2024-04-23T01:45:06.050Z,9.50
2024-04-23T01:46:06.045Z,9.47
2024-04-23T01:47:06.179Z,9.51
2024-04-23T01:48:06.358Z,9.42
2024-04-23T01:49:06.057Z,9.36
2024-04-23T01:50:06.046Z,9.26
2024-04-23T01:51:06.044Z,9.28
2024-04-23T01:52:06.015Z,9.38
2024-04-23T01:53:06.091Z,9.28
2024-04-23T01:54:06.008Z,9.26
2024-04-23T01:55:05.995Z,9.24
2024-04-23T01:56:06.076Z,9.20
2024-04-23T01:57:05.983Z,9.21
2024-04-23T01:58:05.981Z,9.28
2024-04-23T01:59:05.974Z,9.18
2024-04-23T02:00:05.992Z,9.21
2024-04-23T02:01:05.992Z,9.18
2024-04-23T02:02:06.021Z,9.17
2024-04-23T02:03:06.129Z,9.26
2024-04-23T02:04:05.954Z,9.02
2024-04-23T02:05:05.935Z,9.10
2024-04-23T02:06:05.934Z,9.01
2024-04-23T02:07:05.938Z,9.02
2024-04-23T02:08:05.962Z,9.01
2024-04-23T02:09:05.910Z,9.01
2024-04-23T02:10:05.905Z,9.01
2024-04-23T02:11:06.069Z,9.10
2024-04-23T02:12:05.905Z,9.20
2024-04-23T02:13:05.922Z,9.10
2024-04-23T02:14:05.935Z,9.14
2024-04-23T02:15:05.896Z,9.18
2024-04-23T02:16:05.960Z,9.15
2024-04-23T02:17:05.952Z,9.13
2024-04-23T02:18:06.015Z,9.17
2024-04-23T02:19:05.856Z,9.08
2024-04-23T02:20:05.884Z,9.08
2024-04-23T02:21:05.848Z,9.01
2024-04-23T02:22:05.841Z,9.02
2024-04-23T02:23:05.862Z,9.01
2024-04-23T02:24:05.844Z,8.95
2024-04-23T02:25:05.824Z,8.99
2024-04-23T02:26:05.832Z,9.08
2024-04-23T02:27:05.813Z,9.14
2024-04-23T02:28:05.803Z,9.15
2024-04-23T02:29:05.804Z,9.17
2024-04-23T02:30:05.813Z,9.13
2024-04-23T02:31:05.794Z,9.18
2024-04-23T02:32:05.807Z,9.11
2024-04-23T02:33:05.891Z,9.15
2024-04-23T02:34:05.772Z,9.20
2024-04-23T02:35:05.781Z,9.23
2024-04-23T02:36:05.774Z,9.20
2024-04-23T02:37:05.752Z,9.17
2024-04-23T02:38:05.784Z,9.17
2024-04-23T02:39:05.748Z,9.18
2024-04-23T02:40:07.100Z,9.15
2024-04-23T02:41:05.762Z,9.14
2024-04-23T02:42:05.722Z,9.10
2024-04-23T02:43:05.723Z,9.11
2024-04-23T02:44:05.747Z,9.08
2024-04-23T02:45:05.702Z,9.13
2024-04-23T02:46:05.714Z,9.17
2024-04-23T02:47:05.755Z,9.18
2024-04-23T02:48:05.841Z,9.20
2024-04-23T02:49:05.698Z,9.26
2024-04-23T02:50:05.698Z,9.18
2024-04-23T02:51:05.687Z,9.26
2024-04-23T02:52:05.675Z,9.01
2024-04-23T02:53:05.741Z,8.91
2024-04-23T02:54:05.664Z,8.81
2024-04-23T02:55:05.663Z,8.87
2024-04-23T02:56:05.671Z,8.76
2024-04-23T02:57:05.654Z,8.76
2024-04-23T02:58:05.643Z,8.89
2024-04-23T02:59:05.654Z,8.89
2024-04-23T03:00:05.619Z,8.92
2024-04-23T03:01:05.696Z,8.86
2024-04-23T03:02:05.668Z,8.92
2024-04-23T03:03:05.770Z,9.02
2024-04-23T03:04:05.631Z,9.11
2024-04-23T03:05:05.609Z,9.18
2024-04-23T03:06:05.594Z,9.17
2024-04-23T03:07:05.614Z,9.24
2024-04-23T03:08:05.634Z,9.20
2024-04-23T03:09:05.577Z,9.20
2024-04-23T03:10:05.571Z,9.18
2024-04-23T03:11:05.704Z,9.11
2024-04-23T03:12:05.560Z,9.04
2024-04-23T03:13:05.554Z,9.01
2024-04-23T03:14:05.602Z,8.98
2024-04-23T03:15:05.535Z,8.98
2024-04-23T03:16:08.544Z,8.94
2024-04-23T03:17:05.549Z,8.98
2024-04-23T03:18:05.608Z,8.96
2024-04-23T03:19:05.515Z,9.02
2024-04-23T03:20:05.636Z,8.94
2024-04-23T03:21:05.502Z,8.89
2024-04-23T03:22:05.555Z,8.83
2024-04-23T03:23:05.513Z,8.74
2024-04-23T03:24:05.486Z,8.81
2024-04-23T03:25:05.505Z,8.79
2024-04-23T03:26:05.604Z,8.74
2024-04-23T03:27:05.490Z,8.73
2024-04-23T03:28:05.477Z,8.73
2024-04-23T03:29:05.496Z,8.71
2024-04-23T03:30:05.473Z,8.68
2024-04-23T03:31:05.449Z,8.65
2024-04-23T03:32:05.728Z,8.71
2024-04-23T03:33:05.492Z,8.66
2024-04-23T03:34:05.442Z,8.71
2024-04-23T03:35:05.473Z,8.63
2024-04-23T03:36:05.431Z,8.63
2024-04-23T03:37:05.426Z,8.59
2024-04-23T03:38:05.458Z,8.55
2024-04-23T03:39:05.401Z,8.62
2024-04-23T03:40:05.394Z,8.58
2024-04-23T03:41:05.435Z,8.65
2024-04-23T03:42:05.402Z,8.70
2024-04-23T03:43:05.380Z,8.68
2024-04-23T03:44:05.421Z,8.71
2024-04-23T03:45:05.359Z,8.66
2024-04-23T03:46:05.375Z,8.74
2024-04-23T03:47:05.438Z,8.63
2024-04-23T03:48:05.433Z,8.71
2024-04-23T03:49:05.346Z,8.58
2024-04-23T03:50:05.402Z,8.65
2024-04-23T03:51:05.333Z,8.70
2024-04-23T03:52:05.372Z,8.65
2024-04-23T03:53:05.387Z,8.63
2024-04-23T03:54:05.318Z,8.63
2024-04-23T03:55:05.310Z,8.63
2024-04-23T03:56:05.336Z,8.73
2024-04-23T03:57:05.298Z,8.79
2024-04-23T03:58:05.305Z,8.84
2024-04-23T03:59:05.371Z,8.89
2024-04-23T04:00:05.279Z,8.87
2024-04-23T04:01:05.306Z,8.84
2024-04-23T04:02:05.332Z,8.73
2024-04-23T04:03:05.273Z,8.70
2024-04-23T04:04:05.258Z,8.71
2024-04-23T04:05:05.297Z,8.83
2024-04-23T04:06:05.282Z,8.92
2024-04-23T04:07:05.240Z,8.89
2024-04-23T04:08:05.269Z,8.83
2024-04-23T04:09:05.238Z,8.91
2024-04-23T04:10:05.212Z,8.87
2024-04-23T04:11:05.371Z,8.76
2024-04-23T04:12:05.205Z,8.74
2024-04-23T04:13:16.984Z,8.92
2024-04-23T04:14:05.307Z,8.83
2024-04-23T04:15:05.192Z,8.92
2024-04-23T04:16:05.174Z,8.87
2024-04-23T04:17:05.197Z,8.94
2024-04-23T04:18:05.303Z,9.01
2024-04-23T04:19:05.166Z,8.95
2024-04-23T04:20:05.268Z,8.83
2024-04-23T04:21:05.148Z,8.71
2024-04-23T04:22:05.137Z,8.71
2024-04-23T04:23:05.388Z,8.58
2024-04-23T04:24:05.139Z,8.61
2024-04-23T04:25:05.139Z,8.48
2024-04-23T04:26:05.205Z,8.58
2024-04-23T04:27:05.112Z,8.55
2024-04-23T04:28:05.626Z,8.58
2024-04-23T04:29:05.194Z,8.59
2024-04-23T04:30:05.100Z,8.63
2024-04-23T04:31:05.098Z,8.63
2024-04-23T04:32:05.133Z,8.70
2024-04-23T04:33:05.235Z,8.68
2024-04-23T04:34:05.075Z,8.65
2024-04-23T04:35:05.144Z,8.66
2024-04-23T04:36:05.059Z,8.62
2024-04-23T04:37:05.053Z,8.59
2024-04-23T04:38:05.075Z,8.61
2024-04-23T04:39:05.050Z,8.70
2024-04-23T04:40:05.062Z,8.68
2024-04-23T04:41:05.081Z,8.68
2024-04-23T04:42:05.026Z,8.68
2024-04-23T04:43:05.033Z,8.77
2024-04-23T04:44:05.082Z,8.80
2024-04-23T04:45:05.011Z,8.77
2024-04-23T04:46:05.005Z,8.71
2024-04-23T04:47:07.248Z,8.89
2024-04-23T04:48:05.129Z,8.89
2024-04-23T04:49:04.985Z,8.96
2024-04-23T04:50:05.069Z,8.89
2024-04-23T04:51:04.974Z,8.87
2024-04-23T04:52:04.959Z,9.02
2024-04-23T04:53:04.978Z,9.02
2024-04-23T04:54:04.955Z,9.05
2024-04-23T04:55:04.952Z,9.08
2024-04-23T04:56:05.003Z,9.14
2024-04-23T04:57:04.930Z,9.11
2024-04-23T04:58:04.933Z,9.10
2024-04-23T04:59:04.956Z,8.91
2024-04-23T05:00:04.955Z,8.70
2024-04-23T05:01:04.947Z,8.70
2024-04-23T05:02:04.950Z,8.70
2024-04-23T05:03:04.909Z,8.77
2024-04-23T05:04:04.911Z,8.73
2024-04-23T05:05:04.921Z,8.66
2024-04-23T05:06:04.886Z,8.62
2024-04-23T05:07:04.880Z,8.58
2024-04-23T05:08:04.895Z,8.56
2024-04-23T05:09:04.887Z,8.58
2024-04-23T05:10:04.870Z,8.61
2024-04-23T05:11:04.958Z,8.56
2024-04-23T05:12:04.896Z,8.45
2024-04-23T05:13:04.852Z,8.37
2024-04-23T05:14:04.868Z,8.41
2024-04-23T05:15:04.836Z,8.33
2024-04-23T05:16:04.836Z,8.30
2024-04-23T05:17:04.940Z,8.11
2024-04-23T05:18:04.885Z,8.15
2024-04-23T05:19:04.825Z,8.08
2024-04-23T05:20:04.943Z,8.04
2024-04-23T05:21:04.809Z,8.04
2024-04-23T05:22:04.798Z,8.10
2024-04-23T05:23:04.827Z,8.12
2024-04-23T05:24:04.782Z,8.18
2024-04-23T05:25:04.778Z,8.15
2024-04-23T05:26:04.808Z,8.25
2024-04-23T05:27:04.763Z,8.26
2024-04-23T05:28:04.775Z,8.23
2024-04-23T05:29:04.818Z,8.29
2024-04-23T05:30:04.745Z,8.33
2024-04-23T05:31:04.752Z,8.30
2024-04-23T05:32:04.788Z,8.44
2024-04-23T05:33:04.794Z,8.33
2024-04-23T05:34:04.722Z,8.37
2024-04-23T05:35:04.846Z,8.38
2024-04-23T05:36:04.723Z,8.52
2024-04-23T05:37:04.706Z,8.43
2024-04-23T05:38:04.865Z,8.40
2024-04-23T05:39:04.695Z,8.43
2024-04-23T05:40:04.689Z,8.50
2024-04-23T05:41:04.859Z,8.56
2024-04-23T05:42:04.686Z,8.58
2024-04-23T05:43:04.681Z,8.61
2024-04-23T05:44:04.722Z,8.48
2024-04-23T05:45:04.665Z,8.41
2024-04-23T05:46:04.657Z,8.30
2024-04-23T05:47:04.759Z,8.12
2024-04-23T05:48:04.713Z,8.20
2024-04-23T05:49:04.652Z,8.23
2024-04-23T05:50:04.708Z,8.25
2024-04-23T05:51:04.635Z,8.38
2024-04-23T05:52:12.492Z,8.45
2024-04-23T05:53:04.659Z,8.58
2024-04-23T05:54:04.644Z,8.65
2024-04-23T05:55:04.637Z,8.68
2024-04-23T05:56:04.688Z,8.81
2024-04-23T05:57:04.613Z,8.73
2024-04-23T05:58:04.627Z,8.48
2024-04-23T05:59:04.659Z,8.59
2024-04-23T06:00:04.816Z,8.71
2024-04-23T06:01:04.615Z,8.77
2024-04-23T06:02:04.643Z,8.87
2024-04-23T06:03:04.633Z,9.08
2024-04-23T06:04:04.639Z,9.21
2024-04-23T06:05:04.660Z,9.26
2024-04-23T06:06:04.551Z,9.18
2024-04-23T06:07:04.552Z,9.14
2024-04-23T06:08:04.644Z,9.13
2024-04-23T06:09:04.553Z,9.18
2024-04-23T06:10:04.534Z,9.38
2024-04-23T06:11:04.699Z,9.36
2024-04-23T06:12:04.530Z,9.46
2024-04-23T06:13:04.529Z,9.64
2024-04-23T06:14:04.586Z,9.60
2024-04-23T06:16:04.523Z,9.84
2024-04-23T06:17:04.556Z,9.91
2024-04-23T06:18:04.597Z,9.79
2024-04-23T06:19:04.661Z,9.81
2024-04-23T06:20:04.554Z,9.84
2024-04-23T06:21:04.478Z,9.78
2024-04-23T06:22:04.482Z,9.69
2024-04-23T06:23:04.606Z,9.83
2024-04-23T06:24:04.467Z,9.89
2024-04-23T06:25:04.467Z,9.93
2024-04-23T06:26:04.542Z,9.93
2024-04-23T06:27:04.449Z,9.99
2024-04-23T06:28:04.470Z,9.93
2024-04-23T06:29:04.481Z,9.76
2024-04-23T06:30:04.443Z,9.79
2024-04-23T06:31:04.428Z,9.84
2024-04-23T06:32:04.486Z,9.84
2024-04-23T06:33:04.592Z,10.01
2024-04-23T06:34:04.422Z,10.04
2024-04-23T06:35:04.490Z,10.09
2024-04-23T06:36:04.408Z,10.18
2024-04-23T06:37:04.414Z,10.32
2024-04-23T06:38:04.595Z,10.20
2024-04-23T06:39:04.389Z,10.27
2024-04-23T06:40:04.386Z,10.36
2024-04-23T06:41:04.417Z,10.30
2024-04-23T06:42:04.381Z,10.25
2024-04-23T06:43:11.827Z,10.30
2024-04-23T06:44:04.408Z,10.32
2024-04-23T06:45:04.378Z,10.44
2024-04-23T06:46:04.397Z,10.45
2024-04-23T06:47:04.411Z,10.59
2024-04-23T06:48:04.389Z,10.82
2024-04-23T06:49:04.357Z,11.11
2024-04-23T06:50:04.608Z,11.11
2024-04-23T06:51:04.338Z,11.25
2024-04-23T06:52:04.349Z,11.58
2024-04-23T06:53:07.747Z,11.85
2024-04-23T06:54:04.334Z,12.20
2024-04-23T06:55:04.337Z,12.53
2024-04-23T06:56:04.361Z,13.01
2024-04-23T06:57:04.328Z,13.32
2024-04-23T06:58:04.308Z,13.54
2024-04-23T06:59:04.496Z,13.85
2024-04-23T07:00:04.354Z,14.25
2024-04-23T07:01:04.366Z,14.65
2024-04-23T07:02:04.454Z,14.95
2024-04-23T07:03:04.362Z,15.47
2024-04-23T07:04:04.352Z,15.84
2024-04-23T07:05:04.348Z,16.20
2024-04-23T07:06:04.301Z,16.58
2024-04-23T07:07:04.289Z,16.83
2024-04-23T07:08:04.339Z,16.98
2024-04-23T07:09:04.304Z,17.26
2024-04-23T07:10:04.330Z,17.30
2024-04-23T07:11:04.478Z,17.12
2024-04-23T07:12:04.291Z,17.43
2024-04-23T07:13:04.287Z,17.71
2024-04-23T07:14:04.351Z,17.38
2024-04-23T07:15:04.276Z,17.00
2024-04-23T07:16:04.277Z,17.00
2024-04-23T07:17:04.428Z,16.88
2024-04-23T07:18:04.470Z,17.01
2024-04-23T07:19:04.316Z,16.71
2024-04-23T07:20:04.344Z,16.79
2024-04-23T07:21:04.297Z,16.68
2024-04-23T07:22:04.299Z,16.63
2024-04-23T07:23:04.329Z,16.57
2024-04-23T07:24:04.294Z,16.57
2024-04-23T07:25:04.259Z,16.42
2024-04-23T07:26:04.387Z,16.38
2024-04-23T07:27:04.259Z,16.20
2024-04-23T07:28:04.256Z,16.27
2024-04-23T07:29:04.371Z,16.28
2024-04-23T07:30:04.297Z,16.12
2024-04-23T07:31:04.244Z,16.27
2024-04-23T07:32:04.324Z,16.08
2024-04-23T07:33:04.405Z,16.24
2024-04-23T07:34:04.270Z,16.21
2024-04-23T07:35:04.339Z,16.30
2024-04-23T07:36:04.240Z,16.48
2024-04-23T07:37:04.242Z,16.48
2024-04-23T07:38:04.298Z,16.52
2024-04-23T07:39:04.241Z,16.68
2024-04-23T07:40:04.233Z,16.66
2024-04-23T07:41:04.443Z,16.82
2024-04-23T07:42:04.238Z,16.91
2024-04-23T07:43:04.281Z,17.01
2024-04-23T07:44:04.303Z,17.15
2024-04-23T07:45:04.223Z,17.34
2024-04-23T07:46:04.229Z,17.44
2024-04-23T07:47:04.303Z,17.43
2024-04-23T07:48:04.430Z,17.37
2024-04-23T07:49:04.216Z,17.41
2024-04-23T07:50:04.447Z,17.44
2024-04-23T07:51:04.221Z,17.33
2024-04-23T07:52:04.223Z,17.55
2024-04-23T07:53:04.285Z,17.54
2024-04-23T07:54:04.224Z,17.79
2024-04-23T07:55:04.226Z,17.84
2024-04-23T07:56:04.322Z,17.96
2024-04-23T07:57:04.219Z,18.03
2024-04-23T07:58:04.230Z,18.14
2024-04-23T07:59:04.363Z,18.41
2024-04-23T08:00:04.227Z,18.57
2024-04-23T08:01:04.243Z,18.73
2024-04-23T08:02:04.249Z,18.95
2024-04-23T08:03:04.246Z,19.21
2024-04-23T08:04:04.349Z,19.58
2024-04-23T08:05:04.315Z,19.71
2024-04-23T08:06:04.233Z,20.11
2024-04-23T08:07:04.209Z,20.39
2024-04-23T08:08:04.278Z,20.73
2024-04-23T08:09:04.227Z,20.97
2024-04-23T08:10:04.215Z,21.12
2024-04-23T08:11:04.767Z,21.10
2024-04-23T08:12:04.274Z,21.43
2024-04-23T08:13:04.209Z,21.61
2024-04-23T08:14:04.374Z,21.98
2024-04-23T08:15:04.221Z,22.05
2024-04-23T08:16:04.222Z,22.45
2024-04-23T08:17:04.330Z,22.75
2024-04-23T08:18:04.461Z,23.04
2024-04-23T08:19:04.329Z,23.50
2024-04-23T08:20:04.269Z,23.83
2024-04-23T08:21:04.243Z,24.12
2024-04-23T08:22:04.276Z,24.28
2024-04-23T08:23:04.370Z,24.50
2024-04-23T08:24:04.259Z,24.77
2024-04-23T08:25:04.246Z,25.03
2024-04-23T08:26:04.308Z,25.23
2024-04-23T08:27:04.263Z,25.36
2024-04-23T08:28:04.271Z,25.85
2024-04-23T08:29:04.323Z,26.10
2024-04-23T08:30:04.276Z,26.60
2024-04-23T08:31:04.294Z,26.91
2024-04-23T08:32:04.417Z,27.03
2024-04-23T08:33:04.430Z,27.28
2024-04-23T08:34:04.302Z,27.06
2024-04-23T08:35:04.529Z,27.10
2024-04-23T08:36:04.320Z,27.13
2024-04-23T08:37:04.314Z,27.60
2024-04-23T08:38:04.406Z,27.92
2024-04-23T08:39:04.320Z,28.03
2024-04-23T08:40:04.331Z,28.24
2024-04-23T08:41:04.390Z,28.27
2024-04-23T08:42:04.335Z,28.40
2024-04-23T08:43:05.756Z,28.39
2024-04-23T08:44:04.468Z,28.31
2024-04-23T08:45:04.399Z,28.52
2024-04-23T08:46:04.504Z,28.66
2024-04-23T08:47:04.618Z,28.39
2024-04-23T08:48:04.524Z,28.18
2024-04-23T08:49:04.389Z,27.93
2024-04-23T08:50:04.556Z,28.06
2024-04-23T08:51:04.537Z,28.19
2024-04-23T08:52:04.467Z,28.39
2024-04-23T08:53:04.615Z,28.41
2024-04-23T08:54:04.415Z,28.33
2024-04-23T08:55:04.450Z,28.54
2024-04-23T08:56:04.618Z,28.52
2024-04-23T08:57:04.445Z,28.58
2024-04-23T08:58:04.432Z,28.43
2024-04-23T08:59:04.521Z,28.33
2024-04-23T09:00:06.506Z,27.96
2024-04-23T09:01:04.515Z,27.60
2024-04-23T09:02:04.522Z,27.34
2024-04-23T09:03:04.549Z,27.18
2024-04-23T09:04:04.496Z,26.95
2024-04-23T09:05:04.657Z,27.06
2024-04-23T09:06:04.486Z,27.02
2024-04-23T09:07:04.583Z,27.04
2024-04-23T09:08:04.515Z,27.04
2024-04-23T09:09:04.486Z,27.13
2024-04-23T09:10:04.806Z,27.28
2024-04-23T09:11:04.585Z,26.81
2024-04-23T09:12:04.600Z,26.52
2024-04-23T09:13:04.516Z,26.37
2024-04-23T09:14:04.714Z,26.23
2024-04-23T09:15:04.524Z,26.17
2024-04-23T09:16:04.526Z,26.09
2024-04-23T09:17:04.615Z,26.12
2024-04-23T09:18:04.674Z,25.65
2024-04-23T09:19:04.545Z,25.36
2024-04-23T09:20:04.615Z,25.60
2024-04-23T09:21:04.554Z,25.42
2024-04-23T09:22:06.582Z,25.52
2024-04-23T09:23:04.717Z,25.69
2024-04-23T09:24:04.556Z,25.75
2024-04-23T09:25:04.852Z,25.45
2024-04-23T09:26:04.624Z,25.36
2024-04-23T09:27:04.588Z,25.36
2024-04-23T09:28:04.601Z,25.57
2024-04-23T09:29:04.606Z,25.61
2024-04-23T09:30:04.692Z,25.65
2024-04-23T09:31:04.786Z,25.52
2024-04-23T09:32:04.709Z,25.67
2024-04-23T09:33:04.861Z,25.75
2024-04-23T09:34:04.615Z,25.94
2024-04-23T09:35:04.728Z,25.91
2024-04-23T09:36:04.626Z,26.30
2024-04-23T09:37:04.632Z,26.32
2024-04-23T09:38:04.698Z,26.50
2024-04-23T09:39:04.651Z,26.48
2024-04-23T09:40:04.648Z,26.48
2024-04-23T09:41:04.730Z,26.45
2024-04-23T09:42:04.685Z,26.40
2024-04-23T09:43:04.663Z,26.45
2024-04-23T09:44:04.727Z,26.45
2024-04-23T09:45:04.670Z,26.58
2024-04-23T09:46:06.407Z,26.57
2024-04-23T09:47:04.802Z,26.58
2024-04-23T09:48:04.748Z,26.63
2024-04-23T09:49:04.705Z,26.85
2024-04-23T09:50:04.764Z,26.65
2024-04-23T09:51:04.710Z,26.09
2024-04-23T09:52:05.746Z,25.27
2024-04-23T09:53:04.862Z,24.53
2024-04-23T09:54:04.728Z,23.98
2024-04-23T09:55:04.769Z,23.63
2024-04-23T09:56:04.773Z,23.20
2024-04-23T09:57:04.740Z,22.97
2024-04-23T09:58:04.755Z,23.39
2024-04-23T09:59:04.887Z,23.68
2024-04-23T10:00:04.752Z,23.70
2024-04-23T10:01:04.807Z,23.31
2024-04-23T10:02:04.825Z,23.01
2024-04-23T10:03:04.826Z,23.25
2024-04-23T10:04:04.955Z,22.95
2024-04-23T10:05:05.152Z,22.90
2024-04-23T10:06:04.778Z,23.12
2024-04-23T10:07:04.781Z,23.22
2024-04-23T10:08:04.905Z,23.43
2024-04-23T10:09:04.810Z,23.83
2024-04-23T10:10:04.804Z,23.70
2024-04-23T10:11:04.831Z,23.54
2024-04-23T10:12:04.795Z,23.28
2024-04-23T10:13:04.807Z,22.82
2024-04-23T10:14:04.872Z,22.40
2024-04-23T10:15:04.804Z,22.46
2024-04-23T10:16:04.800Z,22.72
2024-04-23T10:17:04.957Z,23.00
2024-04-23T10:18:04.962Z,23.23
2024-04-23T10:19:04.885Z,23.04
2024-04-23T10:20:04.828Z,22.68
2024-04-23T10:21:04.835Z,22.27
2024-04-23T10:22:04.839Z,22.39
2024-04-23T10:23:05.033Z,22.61
2024-04-23T10:24:04.833Z,22.80
2024-04-23T10:25:04.863Z,22.67
2024-04-23T10:26:04.987Z,22.64
2024-04-23T10:27:04.860Z,22.70
2024-04-23T10:28:04.873Z,22.79
2024-04-23T10:29:04.942Z,22.65
2024-04-23T10:30:04.886Z,22.58
2024-04-23T10:31:04.891Z,22.61
2024-04-23T10:32:04.936Z,22.85
2024-04-23T10:33:05.010Z,23.53
2024-04-23T10:34:04.902Z,24.30
2024-04-23T10:35:04.964Z,24.95
2024-04-23T10:36:04.916Z,25.21
2024-04-23T10:37:04.930Z,25.72
2024-04-23T10:38:04.950Z,26.25
2024-04-23T10:39:04.986Z,26.06
2024-04-23T10:40:05.063Z,25.87
2024-04-23T10:41:05.154Z,25.45
2024-04-23T10:42:04.971Z,25.51
2024-04-23T10:43:05.020Z,26.12
2024-04-23T10:44:05.054Z,26.80
2024-04-23T10:45:05.010Z,27.47
2024-04-23T10:46:05.048Z,27.74
2024-04-23T10:47:05.097Z,27.96
2024-04-23T10:48:05.105Z,27.94
2024-04-23T10:49:05.041Z,28.27
2024-04-23T10:50:05.106Z,28.59
2024-04-23T10:51:05.061Z,29.18
2024-04-23T10:52:05.082Z,29.73
2024-04-23T10:53:05.120Z,30.26
2024-04-23T10:54:06.974Z,30.47
2024-04-23T10:55:05.119Z,30.84
2024-04-23T10:56:05.158Z,30.98
2024-04-23T10:57:05.137Z,30.22
2024-04-23T10:58:05.138Z,30.23
2024-04-23T10:59:05.466Z,30.38
2024-04-23T11:00:05.284Z,30.72
2024-04-23T11:01:05.327Z,30.22
2024-04-23T11:02:05.211Z,30.10
2024-04-23T11:03:05.286Z,30.53
2024-04-23T11:04:05.263Z,30.77
2024-04-23T11:05:05.363Z,30.86
2024-04-23T11:06:06.240Z,30.97
2024-04-23T11:07:05.248Z,31.29
2024-04-23T11:08:05.409Z,31.53
2024-04-23T11:09:05.289Z,31.88
2024-04-23T11:10:05.305Z,31.96
2024-04-23T11:11:05.462Z,31.04
2024-04-23T11:12:05.884Z,30.05
2024-04-23T11:13:05.339Z,30.11
2024-04-23T11:14:05.389Z,30.10
2024-04-23T11:15:05.364Z,30.07
2024-04-23T11:16:05.438Z,29.67
2024-04-23T11:17:05.476Z,28.58
2024-04-23T11:18:06.181Z,28.44
2024-04-23T11:19:05.430Z,28.64
2024-04-23T11:20:05.458Z,28.73
2024-04-23T11:21:05.443Z,28.85
2024-04-23T11:22:05.469Z,28.44
2024-04-23T11:23:05.589Z,27.93
2024-04-23T11:24:06.237Z,27.28
2024-04-23T11:25:05.509Z,26.35
2024-04-23T11:26:05.525Z,25.42
2024-04-23T11:27:05.575Z,24.61
2024-04-23T11:28:05.683Z,24.27
2024-04-23T11:29:05.592Z,24.52
2024-04-23T11:30:07.013Z,25.13
2024-04-23T11:31:05.562Z,25.65
2024-04-23T11:32:05.634Z,25.98
2024-04-23T11:33:05.661Z,25.64
2024-04-23T11:34:05.697Z,25.85
2024-04-23T11:35:05.686Z,25.64
2024-04-23T11:36:06.980Z,25.58
2024-04-23T11:37:05.652Z,25.54
2024-04-23T11:38:05.665Z,25.82
2024-04-23T11:39:05.652Z,25.85
2024-04-23T11:40:05.670Z,24.96
2024-04-23T11:41:05.738Z,24.24
2024-04-23T11:42:07.670Z,23.57
2024-04-23T11:43:05.693Z,23.17
2024-04-23T11:44:05.739Z,23.00
2024-04-23T11:45:05.798Z,22.45
2024-04-23T11:46:05.736Z,21.91
2024-04-23T11:47:05.808Z,21.82
2024-04-23T11:48:05.828Z,21.61
2024-04-23T11:49:05.758Z,21.64
2024-04-23T11:50:05.850Z,21.54
2024-04-23T11:51:05.771Z,21.46
2024-04-23T11:52:08.252Z,21.43
2024-04-23T11:53:05.853Z,21.31
2024-04-23T11:54:05.784Z,21.24
2024-04-23T11:55:05.800Z,21.24
2024-04-23T11:56:05.931Z,21.09
2024-04-23T11:57:05.787Z,20.99
2024-04-23T11:58:05.792Z,20.82
2024-04-23T11:59:05.883Z,20.55
2024-04-23T12:00:05.809Z,20.51
2024-04-23T12:01:05.819Z,20.36
2024-04-23T12:02:05.957Z,20.28
2024-04-23T12:03:05.822Z,20.21
2024-04-23T12:04:05.842Z,19.99
2024-04-23T12:05:06.291Z,19.76
2024-04-23T12:06:05.947Z,19.58
2024-04-23T12:07:05.821Z,19.29
2024-04-23T12:08:05.994Z,19.28
2024-04-23T12:09:05.846Z,19.31
2024-04-23T12:10:06.216Z,19.28
2024-04-23T12:11:05.972Z,19.28
2024-04-23T12:12:05.831Z,19.43
2024-04-23T12:13:05.856Z,19.48
2024-04-23T12:14:05.864Z,19.65
2024-04-23T12:15:05.840Z,19.48
2024-04-23T12:16:05.865Z,19.29
2024-04-23T12:17:05.908Z,19.18
2024-04-23T12:18:05.873Z,18.95
2024-04-23T12:19:05.837Z,18.85
2024-04-23T12:20:05.903Z,18.80
2024-04-23T12:21:05.847Z,18.85
2024-04-23T12:22:05.858Z,18.84
2024-04-23T12:23:05.947Z,18.81
2024-04-23T12:24:05.839Z,18.95
2024-04-23T12:25:05.872Z,19.62
2024-04-23T12:26:05.881Z,20.06
2024-04-23T12:27:05.847Z,20.39
2024-04-23T12:28:05.858Z,20.17
2024-04-23T12:29:05.888Z,19.71
2024-04-23T12:30:05.862Z,19.36
2024-04-23T12:31:05.884Z,19.37
2024-04-23T12:32:05.917Z,19.31
2024-04-23T12:33:05.885Z,19.22
2024-04-23T12:34:05.850Z,19.28
2024-04-23T12:35:05.902Z,19.29
2024-04-23T12:36:05.849Z,19.26
2024-04-23T12:37:05.852Z,19.14
2024-04-23T12:38:05.884Z,19.11
2024-04-23T12:39:05.843Z,19.18
2024-04-23T12:40:05.850Z,19.13
2024-04-23T12:41:05.908Z,19.36
2024-04-23T12:42:05.851Z,19.77
2024-04-23T12:43:05.913Z,19.80
2024-04-23T12:44:05.870Z,19.95
2024-04-23T12:45:05.851Z,20.21
2024-04-23T12:46:05.850Z,20.35
2024-04-23T12:47:05.902Z,20.36
2024-04-23T12:48:05.956Z,20.33
2024-04-23T12:49:05.887Z,20.51
2024-04-23T12:50:05.885Z,20.54
2024-04-23T12:51:05.848Z,20.33
2024-04-23T12:52:05.869Z,20.24
2024-04-23T12:53:05.892Z,20.02
2024-04-23T12:54:05.860Z,19.99
2024-04-23T12:55:05.862Z,19.98
2024-04-23T12:56:05.875Z,19.87
2024-04-23T12:57:05.854Z,19.83
2024-04-23T12:58:05.854Z,19.88
2024-04-23T12:59:05.861Z,19.91
2024-04-23T13:00:05.868Z,19.95
2024-04-23T13:01:05.886Z,20.01
2024-04-23T13:02:05.906Z,20.03
2024-04-23T13:03:06.037Z,19.92
2024-04-23T13:04:05.891Z,19.80
2024-04-23T13:05:05.926Z,19.73